sensor_id;sensor_type;location;lat;lon;timestamp;pressure;altitude;pressure_sealevel;temperature;humidity
10700;BME280;5401;41.986;21.452;2023-03-14T00:00:52;98655.03;;;6.92;47.84
10700;BME280;5401;41.986;21.452;2023-03-14T00:03:19;98649.16;;;6.82;48.19
10700;BME280;5401;41.986;21.452;2023-03-14T00:05:47;98653.72;;;6.74;48.19
10700;BME280;5401;41.986;21.452;2023-03-14T00:08:15;98651.88;;;6.74;48.46
10700;BME280;5401;41.986;21.452;2023-03-14T00:10:42;98650.91;;;6.75;48.32
10700;BME280;5401;41.986;21.452;2023-03-14T00:13:11;98646.94;;;6.72;48.43
10700;BME280;5401;41.986;21.452;2023-03-14T00:15:39;98648.41;;;6.74;48.65
10700;BME280;5401;41.986;21.452;2023-03-14T00:18:06;98640.25;;;6.61;48.83
10700;BME280;5401;41.986;21.452;2023-03-14T00:20:34;98646.03;;;6.65;48.62
10700;BME280;5401;41.986;21.452;2023-03-14T00:23:02;98645.47;;;6.69;48.75
10700;BME280;5401;41.986;21.452;2023-03-14T00:25:29;98646.69;;;6.67;48.58
10700;BME280;5401;41.986;21.452;2023-03-14T00:27:56;98641.88;;;6.62;48.88
10700;BME280;5401;41.986;21.452;2023-03-14T00:30:27;98648.88;;;6.63;48.85
10700;BME280;5401;41.986;21.452;2023-03-14T00:32:54;98639.41;;;6.61;48.56
10700;BME280;5401;41.986;21.452;2023-03-14T00:35:22;98635.09;;;6.60;48.88
10700;BME280;5401;41.986;21.452;2023-03-14T00:37:49;98643.81;;;6.68;48.74
10700;BME280;5401;41.986;21.452;2023-03-14T00:40:17;98613.53;;;6.55;48.76
10700;BME280;5401;41.986;21.452;2023-03-14T00:42:45;98618.31;;;6.59;48.68
10700;BME280;5401;41.986;21.452;2023-03-14T00:45:12;98617.66;;;6.57;48.75
10700;BME280;5401;41.986;21.452;2023-03-14T00:47:42;98616.66;;;6.58;48.89
10700;BME280;5401;41.986;21.452;2023-03-14T00:50:11;98614.19;;;6.57;48.87
10700;BME280;5401;41.986;21.452;2023-03-14T00:52:39;98606.56;;;6.54;48.79
10700;BME280;5401;41.986;21.452;2023-03-14T00:55:08;98599.59;;;6.53;49.02
10700;BME280;5401;41.986;21.452;2023-03-14T00:57:36;98575.81;;;6.37;48.73
10700;BME280;5401;41.986;21.452;2023-03-14T01:00:04;98601.63;;;6.51;49.01
10700;BME280;5401;41.986;21.452;2023-03-14T01:02:34;98597.28;;;6.50;49.00
10700;BME280;5401;41.986;21.452;2023-03-14T01:05:03;98552.03;;;6.21;49.04
10700;BME280;5401;41.986;21.452;2023-03-14T01:07:31;98591.88;;;6.43;49.12
10700;BME280;5401;41.986;21.452;2023-03-14T01:09:58;98592.41;;;6.39;49.14
10700;BME280;5401;41.986;21.452;2023-03-14T01:12:28;98574.69;;;6.32;49.12
10700;BME280;5401;41.986;21.452;2023-03-14T01:14:56;98584.78;;;6.36;49.29
10700;BME280;5401;41.986;21.452;2023-03-14T01:17:23;98576.00;;;6.36;49.35
10700;BME280;5401;41.986;21.452;2023-03-14T01:19:51;98582.50;;;6.33;49.39
10700;BME280;5401;41.986;21.452;2023-03-14T01:22:20;98582.50;;;6.33;49.39
10700;BME280;5401;41.986;21.452;2023-03-14T01:24:48;98571.13;;;6.25;49.71
10700;BME280;5401;41.986;21.452;2023-03-14T01:27:15;98579.44;;;6.22;49.50
10700;BME280;5401;41.986;21.452;2023-03-14T01:29:43;98571.38;;;6.15;49.86
10700;BME280;5401;41.986;21.452;2023-03-14T01:32:10;98571.66;;;6.20;49.58
10700;BME280;5401;41.986;21.452;2023-03-14T01:34:38;98572.19;;;6.16;49.77
10700;BME280;5401;41.986;21.452;2023-03-14T01:37:05;98574.66;;;6.17;49.95
10700;BME280;5401;41.986;21.452;2023-03-14T01:39:35;98582.00;;;6.15;49.83
10700;BME280;5401;41.986;21.452;2023-03-14T01:42:03;98584.31;;;6.18;49.91
10700;BME280;5401;41.986;21.452;2023-03-14T01:44:49;98571.03;;;6.18;49.89
10700;BME280;5401;41.986;21.452;2023-03-14T01:47:16;98558.03;;;6.01;50.11
10700;BME280;5401;41.986;21.452;2023-03-14T01:49:45;98566.06;;;6.15;49.99
10700;BME280;5401;41.986;21.452;2023-03-14T01:52:16;98563.22;;;6.17;49.97
10700;BME280;5401;41.986;21.452;2023-03-14T01:54:50;98564.03;;;6.17;50.02
10700;BME280;5401;41.986;21.452;2023-03-14T01:57:20;98565.88;;;6.17;49.62
10700;BME280;5401;41.986;21.452;2023-03-14T01:59:53;98553.47;;;6.09;49.95
10700;BME280;5401;41.986;21.452;2023-03-14T02:02:23;98564.66;;;6.05;50.05
10700;BME280;5401;41.986;21.452;2023-03-14T02:04:52;98567.91;;;5.93;50.22
10700;BME280;5401;41.986;21.452;2023-03-14T02:07:22;98563.16;;;5.88;50.57
10700;BME280;5401;41.986;21.452;2023-03-14T02:09:55;98565.59;;;5.90;50.42
10700;BME280;5401;41.986;21.452;2023-03-14T02:12:23;98569.28;;;5.89;50.17
10700;BME280;5401;41.986;21.452;2023-03-14T02:14:51;98576.97;;;5.84;50.50
10700;BME280;5401;41.986;21.452;2023-03-14T02:17:19;98583.00;;;5.70;50.74
10700;BME280;5401;41.986;21.452;2023-03-14T02:19:57;98577.38;;;5.65;50.83
10700;BME280;5401;41.986;21.452;2023-03-14T02:22:31;98573.44;;;5.61;50.99
10700;BME280;5401;41.986;21.452;2023-03-14T02:25:05;98576.22;;;5.68;51.02
10700;BME280;5401;41.986;21.452;2023-03-14T02:27:36;98570.41;;;5.72;50.41
10700;BME280;5401;41.986;21.452;2023-03-14T02:30:07;98570.22;;;5.73;50.77
10700;BME280;5401;41.986;21.452;2023-03-14T02:32:39;98565.09;;;5.72;50.29
10700;BME280;5401;41.986;21.452;2023-03-14T02:35:10;98564.91;;;5.73;50.86
10700;BME280;5401;41.986;21.452;2023-03-14T02:37:41;98566.41;;;5.76;50.72
10700;BME280;5401;41.986;21.452;2023-03-14T02:40:11;98567.88;;;5.78;50.78
10700;BME280;5401;41.986;21.452;2023-03-14T02:42:40;98559.25;;;5.76;50.83
10700;BME280;5401;41.986;21.452;2023-03-14T02:45:37;98563.53;;;5.77;50.85
10700;BME280;5401;41.986;21.452;2023-03-14T02:48:08;98570.88;;;5.75;50.54
10700;BME280;5401;41.986;21.452;2023-03-14T02:50:38;98575.34;;;5.75;50.83
10700;BME280;5401;41.986;21.452;2023-03-14T02:53:06;98566.88;;;5.71;50.69
10700;BME280;5401;41.986;21.452;2023-03-14T02:55:33;98572.19;;;5.71;50.85
10700;BME280;5401;41.986;21.452;2023-03-14T02:58:02;98567.06;;;5.70;50.51
10700;BME280;5401;41.986;21.452;2023-03-14T03:00:30;98573.22;;;5.70;50.84
10700;BME280;5401;41.986;21.452;2023-03-14T03:02:57;98577.06;;;5.68;50.73
10700;BME280;5401;41.986;21.452;2023-03-14T03:05:25;98574.06;;;5.63;50.72
10700;BME280;5401;41.986;21.452;2023-03-14T03:07:52;98572.78;;;5.59;51.04
10700;BME280;5401;41.986;21.452;2023-03-14T03:10:20;98567.00;;;5.56;50.90
10700;BME280;5401;41.986;21.452;2023-03-14T03:12:47;98573.84;;;5.50;51.17
10700;BME280;5401;41.986;21.452;2023-03-14T03:15:17;98574.00;;;5.49;51.06
10700;BME280;5401;41.986;21.452;2023-03-14T03:17:45;98566.88;;;5.49;50.96
10700;BME280;5401;41.986;21.452;2023-03-14T03:20:13;98573.84;;;5.50;51.21
10700;BME280;5401;41.986;21.452;2023-03-14T03:22:40;98568.06;;;5.47;51.52
10700;BME280;5401;41.986;21.452;2023-03-14T03:25:08;98568.06;;;5.47;51.14
10700;BME280;5401;41.986;21.452;2023-03-14T03:27:37;98570.91;;;5.45;51.71
10700;BME280;5401;41.986;21.452;2023-03-14T03:30:06;98554.53;;;5.34;51.42
10700;BME280;5401;41.986;21.452;2023-03-14T03:32:35;98574.38;;;5.46;51.59
10700;BME280;5401;41.986;21.452;2023-03-14T03:35:04;98574.53;;;5.44;51.54
10700;BME280;5401;41.986;21.452;2023-03-14T03:37:32;98542.84;;;5.21;51.50
10700;BME280;5401;41.986;21.452;2023-03-14T03:40:00;98571.41;;;5.41;51.82
10700;BME280;5401;41.986;21.452;2023-03-14T03:42:30;98566.47;;;5.38;51.86
10700;BME280;5401;41.986;21.452;2023-03-14T03:44:58;98560.53;;;5.28;51.82
10700;BME280;5401;41.986;21.452;2023-03-14T03:47:26;98550.59;;;5.30;52.01
10700;BME280;5401;41.986;21.452;2023-03-14T03:49:54;98551.56;;;5.29;51.31
10700;BME280;5401;41.986;21.452;2023-03-14T03:52:22;98542.66;;;5.22;51.95
10700;BME280;5401;41.986;21.452;2023-03-14T03:54:49;98550.84;;;5.13;51.66
10700;BME280;5401;41.986;21.452;2023-03-14T03:57:17;98543.94;;;5.04;51.68
10700;BME280;5401;41.986;21.452;2023-03-14T03:59:44;98546.94;;;5.01;52.15
10700;BME280;5401;41.986;21.452;2023-03-14T04:02:12;98551.59;;;4.99;52.07
10700;BME280;5401;41.986;21.452;2023-03-14T04:04:39;98543.31;;;4.94;52.42
10700;BME280;5401;41.986;21.452;2023-03-14T04:07:08;98548.63;;;4.94;52.70
10700;BME280;5401;41.986;21.452;2023-03-14T04:09:37;98544.66;;;4.90;52.08
10700;BME280;5401;41.986;21.452;2023-03-14T04:12:05;98549.13;;;4.90;52.55
10700;BME280;5401;41.986;21.452;2023-03-14T04:14:33;98534.56;;;4.86;52.64
10700;BME280;5401;41.986;21.452;2023-03-14T04:17:00;98529.47;;;4.76;52.28
10700;BME280;5401;41.986;21.452;2023-03-14T04:19:28;98538.94;;;4.79;52.50
10700;BME280;5401;41.986;21.452;2023-03-14T04:21:55;98546.03;;;4.78;52.54
10700;BME280;5401;41.986;21.452;2023-03-14T04:24:24;98544.03;;;4.80;52.52
10700;BME280;5401;41.986;21.452;2023-03-14T04:26:52;98538.28;;;4.77;52.50
10700;BME280;5401;41.986;21.452;2023-03-14T04:29:19;98540.72;;;4.78;53.11
10700;BME280;5401;41.986;21.452;2023-03-14T04:31:47;98536.75;;;4.74;52.78
10700;BME280;5401;41.986;21.452;2023-03-14T04:34:14;98546.69;;;4.80;52.75
10700;BME280;5401;41.986;21.452;2023-03-14T04:36:42;98541.56;;;4.79;53.08
10700;BME280;5401;41.986;21.452;2023-03-14T04:39:09;98544.69;;;4.82;52.98
10700;BME280;5401;41.986;21.452;2023-03-14T04:41:38;98546.69;;;4.80;53.25
10700;BME280;5401;41.986;21.452;2023-03-14T04:44:05;98538.31;;;4.69;53.28
10700;BME280;5401;41.986;21.452;2023-03-14T04:46:33;98543.47;;;4.62;52.73
10700;BME280;5401;41.986;21.452;2023-03-14T04:49:01;98533.19;;;4.60;53.28
10700;BME280;5401;41.986;21.452;2023-03-14T04:51:28;98517.00;;;4.47;52.63
10700;BME280;5401;41.986;21.452;2023-03-14T04:53:56;98537.31;;;4.62;53.43
10700;BME280;5401;41.986;21.452;2023-03-14T04:56:23;98537.31;;;4.62;53.41
10700;BME280;5401;41.986;21.452;2023-03-14T04:58:52;98549.38;;;4.72;53.03
10700;BME280;5401;41.986;21.452;2023-03-14T05:01:20;98549.84;;;4.84;53.14
10700;BME280;5401;41.986;21.452;2023-03-14T05:03:47;98538.22;;;5.15;53.26
10700;BME280;5401;41.986;21.452;2023-03-14T05:06:15;98545.84;;;5.70;52.01
10700;BME280;5401;41.986;21.452;2023-03-14T05:08:42;98542.66;;;5.97;52.09
10700;BME280;5401;41.986;21.452;2023-03-14T05:11:11;98547.41;;;6.01;51.46
10700;BME280;5401;41.986;21.452;2023-03-14T05:13:39;98535.59;;;6.03;51.32
10700;BME280;5401;41.986;21.452;2023-03-14T05:16:09;98536.09;;;6.36;51.07
10700;BME280;5401;41.986;21.452;2023-03-14T05:18:37;98531.28;;;6.68;50.90
10700;BME280;5401;41.986;21.452;2023-03-14T05:21:05;98539.56;;;7.22;50.45
10700;BME280;5401;41.986;21.452;2023-03-14T05:23:33;98538.84;;;8.11;49.71
10700;BME280;5401;41.986;21.452;2023-03-14T05:26:00;98539.78;;;9.31;47.75
10700;BME280;5401;41.986;21.452;2023-03-14T05:28:28;98539.00;;;10.34;46.68
10700;BME280;5401;41.986;21.452;2023-03-14T05:30:55;98524.94;;;11.34;45.71
10700;BME280;5401;41.986;21.452;2023-03-14T05:33:24;98526.94;;;12.18;44.09
10700;BME280;5401;41.986;21.452;2023-03-14T05:35:51;98507.72;;;12.63;43.81
10700;BME280;5401;41.986;21.452;2023-03-14T05:38:19;98519.75;;;13.03;43.49
10700;BME280;5401;41.986;21.452;2023-03-14T05:40:48;98520.31;;;13.22;42.26
10700;BME280;5401;41.986;21.452;2023-03-14T05:43:15;98496.72;;;13.07;42.82
10700;BME280;5401;41.986;21.452;2023-03-14T05:45:43;98504.06;;;13.00;42.31
10700;BME280;5401;41.986;21.452;2023-03-14T05:48:10;98501.38;;;12.58;43.52
10700;BME280;5401;41.986;21.452;2023-03-14T05:50:39;98505.53;;;12.30;43.12
10700;BME280;5401;41.986;21.452;2023-03-14T05:53:07;98515.84;;;12.09;43.32
10700;BME280;5401;41.986;21.452;2023-03-14T05:55:34;98516.06;;;11.76;44.26
10700;BME280;5401;41.986;21.452;2023-03-14T05:58:02;98509.47;;;11.36;44.73
10700;BME280;5401;41.986;21.452;2023-03-14T06:00:29;98515.16;;;11.02;44.70
10700;BME280;5401;41.986;21.452;2023-03-14T06:02:57;98509.66;;;10.78;45.25
10700;BME280;5401;41.986;21.452;2023-03-14T06:05:24;98514.03;;;10.72;45.20
10700;BME280;5401;41.986;21.452;2023-03-14T06:07:53;98517.56;;;10.47;45.36
10700;BME280;5401;41.986;21.452;2023-03-14T06:10:21;98527.41;;;10.60;45.65
10700;BME280;5401;41.986;21.452;2023-03-14T06:12:49;98528.97;;;11.05;45.58
10700;BME280;5401;41.986;21.452;2023-03-14T06:15:17;98531.28;;;11.52;45.04
10700;BME280;5401;41.986;21.452;2023-03-14T06:17:45;98528.00;;;11.80;44.86
10700;BME280;5401;41.986;21.452;2023-03-14T06:20:13;98535.16;;;11.93;44.27
10700;BME280;5401;41.986;21.452;2023-03-14T06:22:40;98535.94;;;12.24;44.37
10700;BME280;5401;41.986;21.452;2023-03-14T06:25:10;98525.88;;;12.44;44.11
10700;BME280;5401;41.986;21.452;2023-03-14T06:27:37;98523.38;;;12.66;43.50
10700;BME280;5401;41.986;21.452;2023-03-14T06:30:06;98509.88;;;12.31;43.17
10700;BME280;5401;41.986;21.452;2023-03-14T06:32:34;98523.31;;;12.31;43.96
10700;BME280;5401;41.986;21.452;2023-03-14T06:35:01;98532.25;;;12.25;44.17
10700;BME280;5401;41.986;21.452;2023-03-14T06:37:29;98523.84;;;12.39;43.35
10700;BME280;5401;41.986;21.452;2023-03-14T06:39:57;98502.22;;;12.76;43.26
10700;BME280;5401;41.986;21.452;2023-03-14T06:42:26;98508.63;;;13.17;42.66
10700;BME280;5401;41.986;21.452;2023-03-14T06:44:53;98527.97;;;13.25;43.50
10700;BME280;5401;41.986;21.452;2023-03-14T06:47:21;98520.56;;;13.03;43.01
10700;BME280;5401;41.986;21.452;2023-03-14T06:49:48;98517.78;;;13.10;42.44
10700;BME280;5401;41.986;21.452;2023-03-14T06:52:16;98516.00;;;13.21;43.70
10700;BME280;5401;41.986;21.452;2023-03-14T06:54:43;98521.00;;;13.36;43.59
10700;BME280;5401;41.986;21.452;2023-03-14T06:57:11;98520.31;;;13.40;42.39
10700;BME280;5401;41.986;21.452;2023-03-14T06:59:40;98514.22;;;13.62;42.47
10700;BME280;5401;41.986;21.452;2023-03-14T07:02:08;98518.06;;;13.95;42.45
10700;BME280;5401;41.986;21.452;2023-03-14T07:04:37;98512.69;;;13.95;42.93
10700;BME280;5401;41.986;21.452;2023-03-14T07:07:05;98504.88;;;13.94;41.96
10700;BME280;5401;41.986;21.452;2023-03-14T07:09:33;98497.81;;;14.11;42.05
10700;BME280;5401;41.986;21.452;2023-03-14T07:12:01;98512.69;;;14.36;42.82
10700;BME280;5401;41.986;21.452;2023-03-14T07:14:30;98506.63;;;14.40;42.36
10700;BME280;5401;41.986;21.452;2023-03-14T07:17:00;98502.59;;;14.09;42.60
10700;BME280;5401;41.986;21.452;2023-03-14T07:19:27;98501.69;;;14.15;42.26
10700;BME280;5401;41.986;21.452;2023-03-14T07:21:55;98505.50;;;14.07;42.60
10700;BME280;5401;41.986;21.452;2023-03-14T07:24:24;98501.69;;;14.15;42.65
10700;BME280;5401;41.986;21.452;2023-03-14T07:26:51;98495.59;;;14.42;41.72
10700;BME280;5401;41.986;21.452;2023-03-14T07:29:19;98482.88;;;14.49;41.89
10700;BME280;5401;41.986;21.452;2023-03-14T07:31:46;98480.28;;;14.65;41.48
10700;BME280;5401;41.986;21.452;2023-03-14T07:34:15;98483.09;;;14.59;41.73
10700;BME280;5401;41.986;21.452;2023-03-14T07:36:43;98473.84;;;14.55;41.75
10700;BME280;5401;41.986;21.452;2023-03-14T07:39:10;98477.81;;;14.63;41.90
10700;BME280;5401;41.986;21.452;2023-03-14T07:41:38;98481.78;;;14.95;41.31
10700;BME280;5401;41.986;21.452;2023-03-14T07:44:06;98458.88;;;15.20;41.08
10700;BME280;5401;41.986;21.452;2023-03-14T07:46:33;98468.22;;;15.40;40.81
10700;BME280;5401;41.986;21.452;2023-03-14T07:49:01;98473.03;;;15.66;40.88
10700;BME280;5401;41.986;21.452;2023-03-14T07:51:30;98468.63;;;16.04;40.49
10700;BME280;5401;41.986;21.452;2023-03-14T07:53:57;98465.28;;;16.46;39.66
10700;BME280;5401;41.986;21.452;2023-03-14T07:56:25;98466.75;;;16.70;39.76
10700;BME280;5401;41.986;21.452;2023-03-14T07:58:52;98471.19;;;16.59;39.50
10700;BME280;5401;41.986;21.452;2023-03-14T08:01:20;98456.38;;;16.45;38.94
10700;BME280;5401;41.986;21.452;2023-03-14T08:03:47;98473.97;;;16.32;39.51
10700;BME280;5401;41.986;21.452;2023-03-14T08:06:15;98472.13;;;16.32;39.45
10700;BME280;5401;41.986;21.452;2023-03-14T08:08:44;98462.16;;;16.05;39.07
10700;BME280;5401;41.986;21.452;2023-03-14T08:11:12;98457.44;;;15.68;39.40
10700;BME280;5401;41.986;21.452;2023-03-14T08:13:39;98448.84;;;15.43;39.59
10700;BME280;5401;41.986;21.452;2023-03-14T08:16:08;98450.81;;;15.20;39.45
10700;BME280;5401;41.986;21.452;2023-03-14T08:18:35;98444.50;;;15.03;39.90
10700;BME280;5401;41.986;21.452;2023-03-14T08:21:04;98445.66;;;14.96;40.28
10700;BME280;5401;41.986;21.452;2023-03-14T08:23:32;98439.13;;;14.92;40.10
10700;BME280;5401;41.986;21.452;2023-03-14T08:26:01;98438.22;;;14.87;40.08
10700;BME280;5401;41.986;21.452;2023-03-14T08:28:28;98428.72;;;14.73;40.69
10700;BME280;5401;41.986;21.452;2023-03-14T08:30:59;98421.69;;;14.72;40.20
10700;BME280;5401;41.986;21.452;2023-03-14T08:33:27;98427.38;;;14.98;40.71
10700;BME280;5401;41.986;21.452;2023-03-14T08:35:56;98418.88;;;15.29;40.00
10700;BME280;5401;41.986;21.452;2023-03-14T08:38:24;98406.28;;;15.45;39.84
10700;BME280;5401;41.986;21.452;2023-03-14T08:40:56;98410.50;;;15.41;39.82
10700;BME280;5401;41.986;21.452;2023-03-14T08:43:25;98400.91;;;15.34;39.62
10700;BME280;5401;41.986;21.452;2023-03-14T08:45:53;98390.78;;;15.41;39.89
10700;BME280;5401;41.986;21.452;2023-03-14T08:48:21;98394.19;;;15.64;39.37
10700;BME280;5401;41.986;21.452;2023-03-14T08:50:48;98382.09;;;15.83;39.33
10700;BME280;5401;41.986;21.452;2023-03-14T08:53:16;98374.81;;;16.00;39.29
10700;BME280;5401;41.986;21.452;2023-03-14T08:55:44;98354.22;;;15.77;39.30
10700;BME280;5401;41.986;21.452;2023-03-14T08:58:12;98367.38;;;15.58;39.49
10700;BME280;5401;41.986;21.452;2023-03-14T09:00:41;98362.25;;;15.45;39.15
10700;BME280;5401;41.986;21.452;2023-03-14T09:03:08;98370.22;;;15.51;39.17
10700;BME280;5401;41.986;21.452;2023-03-14T09:05:36;98361.13;;;15.57;39.03
10700;BME280;5401;41.986;21.452;2023-03-14T09:08:03;98355.91;;;15.83;38.92
10700;BME280;5401;41.986;21.452;2023-03-14T09:10:31;98354.94;;;16.05;38.38
10700;BME280;5401;41.986;21.452;2023-03-14T09:12:58;98349.31;;;16.23;38.12
10700;BME280;5401;41.986;21.452;2023-03-14T09:15:26;98347.88;;;16.37;37.92
10700;BME280;5401;41.986;21.452;2023-03-14T09:17:55;98353.25;;;16.53;38.36
10700;BME280;5401;41.986;21.452;2023-03-14T09:20:22;98350.25;;;16.34;38.31
10700;BME280;5401;41.986;21.452;2023-03-14T09:22:52;98349.47;;;16.17;38.14
10700;BME280;5401;41.986;21.452;2023-03-14T09:25:20;98350.38;;;16.22;37.55
10700;BME280;5401;41.986;21.452;2023-03-14T09:27:48;98346.13;;;16.26;37.76
10700;BME280;5401;41.986;21.452;2023-03-14T09:30:15;98334.06;;;16.17;37.78
10700;BME280;5401;41.986;21.452;2023-03-14T09:32:43;98324.69;;;16.20;37.51
10700;BME280;5401;41.986;21.452;2023-03-14T09:35:12;98310.59;;;16.18;37.10
10700;BME280;5401;41.986;21.452;2023-03-14T09:37:39;98324.41;;;16.21;37.08
10700;BME280;5401;41.986;21.452;2023-03-14T09:40:12;98315.41;;;16.32;37.52
10700;BME280;5401;41.986;21.452;2023-03-14T09:42:40;98307.50;;;16.47;36.75
10700;BME280;5401;41.986;21.452;2023-03-14T09:45:12;98292.91;;;16.69;36.70
10700;BME280;5401;41.986;21.452;2023-03-14T09:47:41;98283.91;;;16.64;36.30
10700;BME280;5401;41.986;21.452;2023-03-14T09:50:14;98287.56;;;16.74;36.70
10700;BME280;5401;41.986;21.452;2023-03-14T09:52:43;98290.75;;;16.29;36.76
10700;BME280;5401;41.986;21.452;2023-03-14T09:55:13;98275.97;;;15.99;37.29
10700;BME280;5401;41.986;21.452;2023-03-14T09:57:44;98274.66;;;16.17;36.87
10700;BME280;5401;41.986;21.452;2023-03-14T10:00:15;98243.50;;;16.31;37.37
10700;BME280;5401;41.986;21.452;2023-03-14T10:02:50;98257.44;;;16.66;36.79
10700;BME280;5401;41.986;21.452;2023-03-14T10:05:21;98249.94;;;16.94;36.99
10700;BME280;5401;41.986;21.452;2023-03-14T10:07:49;98251.28;;;17.17;36.35
10700;BME280;5401;41.986;21.452;2023-03-14T10:10:19;98245.13;;;17.27;36.65
10700;BME280;5401;41.986;21.452;2023-03-14T10:12:55;98226.03;;;17.12;36.18
10700;BME280;5401;41.986;21.452;2023-03-14T10:15:25;98228.44;;;17.09;36.34
10700;BME280;5401;41.986;21.452;2023-03-14T10:17:52;98224.72;;;16.88;36.89
10700;BME280;5401;41.986;21.452;2023-03-14T10:20:31;98218.66;;;16.77;36.51
10700;BME280;5401;41.986;21.452;2023-03-14T10:23:03;98208.25;;;16.42;36.95
10700;BME280;5401;41.986;21.452;2023-03-14T10:25:33;98199.63;;;16.45;37.13
10700;BME280;5401;41.986;21.452;2023-03-14T10:28:02;98184.84;;;16.27;37.14
10700;BME280;5401;41.986;21.452;2023-03-14T10:30:35;98190.69;;;16.40;37.05
10700;BME280;5401;41.986;21.452;2023-03-14T10:33:11;98181.94;;;16.33;36.81
10700;BME280;5401;41.986;21.452;2023-03-14T10:35:40;98175.28;;;16.41;36.42
10700;BME280;5401;41.986;21.452;2023-03-14T10:38:12;98172.41;;;16.52;36.65
10700;BME280;5401;41.986;21.452;2023-03-14T10:40:46;98172.81;;;16.39;36.72
10700;BME280;5401;41.986;21.452;2023-03-14T10:43:17;98161.50;;;16.42;36.27
10700;BME280;5401;41.986;21.452;2023-03-14T10:45:51;98137.78;;;16.23;36.49
10700;BME280;5401;41.986;21.452;2023-03-14T10:48:30;98149.09;;;16.46;36.71
10700;BME280;5401;41.986;21.452;2023-03-14T10:51:04;98133.75;;;16.77;36.16
10700;BME280;5401;41.986;21.452;2023-03-14T10:53:40;98119.25;;;16.88;36.09
10700;BME280;5401;41.986;21.452;2023-03-14T10:56:12;98121.47;;;16.96;35.55
10700;BME280;5401;41.986;21.452;2023-03-14T10:58:41;98109.78;;;17.17;36.48
10700;BME280;5401;41.986;21.452;2023-03-14T11:01:23;98106.63;;;17.30;35.36
10700;BME280;5401;41.986;21.452;2023-03-14T11:03:56;98100.13;;;17.31;35.37
10700;BME280;5401;41.986;21.452;2023-03-14T11:06:33;98102.16;;;17.50;35.54
10700;BME280;5401;41.986;21.452;2023-03-14T11:09:10;98088.19;;;17.68;35.93
10700;BME280;5401;41.986;21.452;2023-03-14T11:11:46;98074.22;;;17.95;35.24
10700;BME280;5401;41.986;21.452;2023-03-14T11:14:21;98082.19;;;18.22;34.62
10700;BME280;5401;41.986;21.452;2023-03-14T11:16:54;98071.13;;;18.33;34.40
10700;BME280;5401;41.986;21.452;2023-03-14T11:19:56;98064.88;;;18.32;34.93
10700;BME280;5401;41.986;21.452;2023-03-14T11:22:34;98053.78;;;18.39;34.33
10700;BME280;5401;41.986;21.452;2023-03-14T11:25:15;98020.38;;;18.14;33.98
10700;BME280;5401;41.986;21.452;2023-03-14T11:27:48;98032.34;;;18.27;34.47
10700;BME280;5401;41.986;21.452;2023-03-14T11:30:25;98028.31;;;18.30;33.99
10700;BME280;5401;41.986;21.452;2023-03-14T11:33:02;98024.50;;;18.56;34.22
10700;BME280;5401;41.986;21.452;2023-03-14T11:35:34;98005.81;;;18.59;34.38
10700;BME280;5401;41.986;21.452;2023-03-14T11:38:18;97988.19;;;18.47;34.07
10700;BME280;5401;41.986;21.452;2023-03-14T11:40:48;97990.91;;;18.61;34.13
10700;BME280;5401;41.986;21.452;2023-03-14T11:43:20;97993.06;;;18.69;34.09
10700;BME280;5401;41.986;21.452;2023-03-14T11:45:54;97979.50;;;18.69;34.07
10700;BME280;5401;41.986;21.452;2023-03-14T11:48:30;97954.84;;;18.71;33.75
10700;BME280;5401;41.986;21.452;2023-03-14T11:51:06;97965.09;;;18.93;33.90
10700;BME280;5401;41.986;21.452;2023-03-14T11:53:46;97925.78;;;19.01;33.52
10700;BME280;5401;41.986;21.452;2023-03-14T11:56:21;97920.03;;;19.17;33.39
10700;BME280;5401;41.986;21.452;2023-03-14T11:58:57;97941.38;;;19.43;33.32
10700;BME280;5401;41.986;21.452;2023-03-14T12:01:32;97923.44;;;19.47;33.52
10700;BME280;5401;41.986;21.452;2023-03-14T12:04:06;97913.16;;;19.34;33.73
10700;BME280;5401;41.986;21.452;2023-03-14T12:06:42;97921.75;;;19.56;33.62
10700;BME280;5401;41.986;21.452;2023-03-14T12:09:13;97905.25;;;19.43;33.52
10700;BME280;5401;41.986;21.452;2023-03-14T12:11:44;97895.22;;;19.38;33.34
10700;BME280;5401;41.986;21.452;2023-03-14T12:14:20;97891.44;;;19.39;33.01
10700;BME280;5401;41.986;21.452;2023-03-14T12:16:56;97893.56;;;19.47;33.03
10700;BME280;5401;41.986;21.452;2023-03-14T12:19:36;97888.34;;;19.56;33.37
10700;BME280;5401;41.986;21.452;2023-03-14T12:22:27;97878.13;;;19.38;33.09
10700;BME280;5401;41.986;21.452;2023-03-14T12:25:05;97857.91;;;19.06;33.44
10700;BME280;5401;41.986;21.452;2023-03-14T12:27:45;97871.81;;;18.85;33.62
10700;BME280;5401;41.986;21.452;2023-03-14T12:30:23;97863.47;;;18.42;33.77
10700;BME280;5401;41.986;21.452;2023-03-14T12:36:04;97835.03;;;18.29;34.16
10700;BME280;5401;41.986;21.452;2023-03-14T12:38:54;97838.56;;;18.35;34.36
10700;BME280;5401;41.986;21.452;2023-03-14T12:41:34;97823.94;;;18.31;34.37
10700;BME280;5401;41.986;21.452;2023-03-14T12:44:45;97824.50;;;18.13;33.59
10700;BME280;5401;41.986;21.452;2023-03-14T12:50:18;97796.56;;;17.93;34.71
10700;BME280;5401;41.986;21.452;2023-03-14T12:52:56;97799.00;;;18.04;34.63
10700;BME280;5401;41.986;21.452;2023-03-14T12:55:33;97775.72;;;17.98;34.00
10700;BME280;5401;41.986;21.452;2023-03-14T12:58:08;97809.03;;;18.14;34.05
10700;BME280;5401;41.986;21.452;2023-03-14T13:00:39;97774.38;;;18.06;34.07
10700;BME280;5401;41.986;21.452;2023-03-14T13:03:18;97775.44;;;18.20;33.81
10700;BME280;5401;41.986;21.452;2023-03-14T13:05:55;97777.59;;;18.32;33.80
10700;BME280;5401;41.986;21.452;2023-03-14T13:08:36;97715.59;;;18.16;33.93
10700;BME280;5401;41.986;21.452;2023-03-14T13:11:12;97766.66;;;18.57;33.34
10700;BME280;5401;41.986;21.452;2023-03-14T13:13:48;97759.88;;;18.59;33.80
10700;BME280;5401;41.986;21.452;2023-03-14T13:16:18;97766.34;;;18.73;33.28
10700;BME280;5401;41.986;21.452;2023-03-14T13:18:48;97769.38;;;18.52;33.04
10700;BME280;5401;41.986;21.452;2023-03-14T13:21:17;97751.75;;;18.59;33.76
10700;BME280;5401;41.986;21.452;2023-03-14T13:23:59;97748.22;;;18.54;32.96
10700;BME280;5401;41.986;21.452;2023-03-14T13:26:34;97739.56;;;18.52;33.77